This is the latest recevied weather packets stored in our database for station/object OM6ABF-11. If no packets are shown the sender has not sent any weather packets the latest 10 day(s).
| Time | Temp. | Humidity | Pressure | Rain* | Wind** | Luminosity | Snow |
|---|---|---|---|---|---|---|---|
| 1777634220 | 15° C | 36% | 1027.6 hPa | - | - | - | - |
| 1777633321 | 16.11° C | 35% | 1027.7 hPa | - | - | - | - |
| 1777632423 | 15.56° C | 35% | 1027.9 hPa | - | - | - | - |
| 1777631525 | 13.33° C | 37% | 1027.9 hPa | - | - | - | - |
| 1777630626 | 14.44° C | 36% | 1028.1 hPa | - | - | - | - |
| 1777629727 | 13.89° C | 37% | 1028.1 hPa | - | - | - | - |
| 1777628828 | 13.89° C | 38% | 1028.2 hPa | - | - | - | - |
| 1777627929 | 12.22° C | 40% | 1028.5 hPa | - | - | - | - |
| 1777627031 | 12.78° C | 39% | 1028.5 hPa | - | - | - | - |
| 1777626134 | 13.33° C | 37% | 1028.6 hPa | - | - | - | - |
| 1777625236 | 11.67° C | 39% | 1028.9 hPa | - | - | - | - |
| 1777624338 | 12.22° C | 35% | 1028.9 hPa | - | - | - | - |
| 1777623436 | 12.22° C | 34% | 1029 hPa | - | - | - | - |
| 1777622535 | 10.56° C | 36% | 1029.2 hPa | - | - | - | - |
| 1777621636 | 8.89° C | 39% | 1029.3 hPa | - | - | - | - |
| 1777620735 | 8.89° C | 37% | 1029.4 hPa | - | - | - | - |
| 1777619836 | 7.78° C | 41% | 1029.4 hPa | - | - | - | - |
| 1777618937 | 7.78° C | 41% | 1029.3 hPa | - | - | - | - |
| 1777618038 | 6.67° C | 45% | 1029.3 hPa | - | - | - | - |
| 1777617139 | 6.67° C | 45% | 1029.1 hPa | - | - | - | - |
| 1777616238 | 6.11° C | 45% | 1029.1 hPa | - | - | - | - |
| 1777615339 | 5° C | 49% | 1029.1 hPa | - | - | - | - |
| 1777614439 | 3.89° C | 53% | 1029.1 hPa | - | - | - | - |
| 1777613539 | 3.89° C | 54% | 1029.3 hPa | - | - | - | - |
| 1777612641 | 3.33° C | 60% | 1029.2 hPa | - | - | - | - |
* Rain since midnight (hover to see other rain measurements)
** Current wind speed in m/s (hover to see current wind gust speed)